Flight Track Log - Related Links

Times and Time Zones

All times are in EDT time to prevent confusion due to time zone crossing. See the N770NC flight status page for this flight to view local times or setup timezone preferences in your user account.

Time Position Orientation Groundspeed Altitude Reporting Facility
EDT Latitude Longitude Course Direction KTS MPH feet Rate Location/Type
Sat 07:39:06 PM 33.6333 -84.4000 163° South 159 183 2,100  Level Atlanta TRACON
Sat 07:40:12 PM 33.6167 -84.3333 107° East 247 284 3,500 2,050 Climbing Atlanta TRACON
Sat 07:41:06 PM 33.6000 -84.2500 103° East 271 312 6,200 2,750 Climbing Atlanta TRACON
Sat 07:42:00 PM 33.2595 -84.2667 180° South  Level FlightAware Approximate
Sat 07:42:12 PM 33.5167 -84.2333 171° South 293 337 9,000  Level Atlanta TRACON
Sat 07:43:00 PM 33.1647 -84.2356 163° South  Level FlightAware Approximate
Sat 07:44:00 PM 33.0703 -84.2013 163° South  Level FlightAware Approximate
Sat 07:44:32 PM 33.3036 -84.2278 179° South 335 386 13,500  Level Atlanta Center
Sat 07:45:32 PM 33.2203 -84.1506 142° Southeast 351 404 15,300 1,600 Climbing Atlanta Center
Sat 07:46:32 PM 33.1408 -84.0489 133° Southeast 398 458 16,700 1,300 Climbing Atlanta Center
Sat 07:47:32 PM 33.0594 -83.9619 138° Southeast 419 482 17,900 1,800 Climbing Atlanta Center
Sat 07:48:32 PM 32.9572 -83.8756 145° Southeast 439 505 20,300 1,550 Climbing Atlanta Center
Sat 07:49:32 PM 32.8506 -83.7939 147° Southeast 452 520 21,000 400 Climbing Atlanta Center
Sat 07:50:32 PM 32.7500 -83.6981 141° Southeast 462 532 21,100 50 Climbing Atlanta Center
Sat 07:51:32 PM 32.6808 -83.5775 124° Southeast 445 512 21,100 -50 Level Atlanta Center
Sat 07:52:32 PM 32.6511 -83.4319 104° East 429 494 21,000 -50 Descending Atlanta Center
Sat 07:53:32 PM 32.6208 -83.2867 104° East 443 510 21,000  Level Atlanta Center
Sat 07:54:32 PM 32.5867 -83.1367 105° East 453 521 21,000  Level Atlanta Center
Sat 07:55:32 PM 32.5478 -82.9792 106° East 458 527 21,000  Level Atlanta Center
Sat 07:56:32 PM 32.5089 -82.8319 107° East 453 521 21,000 -261 Level Atlanta Center
Sat 07:58:59 PM 32.4247 -82.4889 106° East 473 544 20,100 -1,333 Descending Jacksonville Center
Sat 07:59:59 PM 32.3908 -82.3539 107° East 453 521 16,400 -3,200 Descending Jacksonville Center
Sat 08:00:59 PM 32.3611 -82.2211 105° East 417 480 13,700 -2,450 Descending Jacksonville Center
Sat 08:01:59 PM 32.3331 -82.0811 103° East 400 460 11,500 -1,350 Descending Jacksonville Center
Sat 08:02:59 PM 32.3092 -81.9633 103° East 400 460 11,000 -250 Descending Jacksonville Center
Sat 08:03:59 PM 32.2872 -81.8261 101° East 391 450 11,000 -500 Level Jacksonville Center
Sat 08:04:59 PM 32.2739 -81.7231 99° East 358 412 10,000 -1,250 Descending Jacksonville Center
Sat 08:05:59 PM 32.2500 -81.6200 105° East 304 350 8,500 -2,000 Descending Jacksonville Center
Sat 08:06:59 PM 32.2200 -81.5419 114° Southeast 280 322 6,000 -2,250 Descending Jacksonville Center
Sat 08:07:59 PM 32.1794 -81.4664 122° Southeast 280 322 4,000 -1,750 Descending Jacksonville Center
Sat 08:08:59 PM 32.1472 -81.3858 115° Southeast 254 292 2,500 -1,500 Descending Jacksonville Center

Login

Don't have an account? Register now (free) for customized features, flight alerts, and more!